Time;durP1;ratioP1;P1;durP2;ratioP2;P2;SDS_P1;SDS_P2;PMS_P1;PMS_P2;Temp;Humidity;BMP_temperature;BMP_pressure;BME280_temperature;BME280_humidity;BME280_pressure;Samples;Min_cycle;Max_cycle;Signal;HPM_P1;HPM_P2
2020/12/02 00:02:00;;;;;;;17.98;10.45;;;4.10;98.40;;;;;;6252845;23;20054;-84
2020/12/02 00:04:28;;;;;;;17.45;10.20;;;4.10;98.40;;;;;;6253652;23;20474;-83
2020/12/02 00:06:55;;;;;;;18.50;10.80;;;4.10;98.50;;;;;;6254811;23;20027;-83
2020/12/02 00:09:24;;;;;;;15.90;10.05;;;4.10;98.50;;;;;;6254094;23;20062;-83
2020/12/02 00:11:53;;;;;;;17.20;10.23;;;4.10;98.50;;;;;;6231270;23;20080;-83
2020/12/02 00:14:25;;;;;;;18.35;10.60;;;4.10;98.60;;;;;;6209806;23;20024;-85
2020/12/02 00:16:53;;;;;;;17.80;10.60;;;4.10;98.60;;;;;;6256435;23;20020;-84
2020/12/02 00:19:22;;;;;;;18.30;11.00;;;4.10;98.50;;;;;;6254396;23;20039;-86
2020/12/02 00:22:04;;;;;;;17.90;10.25;;;4.10;98.50;;;;;;6231123;23;20346;-85
2020/12/02 00:24:33;;;;;;;19.65;10.90;;;4.10;98.60;;;;;;6257155;23;20103;-87
2020/12/02 00:27:02;;;;;;;15.95;9.93;;;4.10;98.50;;;;;;6230004;23;20024;-85
2020/12/02 00:29:30;;;;;;;16.98;10.15;;;4.10;98.80;;;;;;6254938;23;20061;-86
2020/12/02 00:31:56;;;;;;;17.50;10.18;;;4.10;98.60;;;;;;6231237;23;20020;-87
2020/12/02 00:34:23;;;;;;;24.42;13.05;;;4.10;98.60;;;;;;6203709;23;20020;-87
2020/12/02 00:36:50;;;;;;;22.85;12.30;;;4.00;98.60;;;;;;6250928;23;20017;-86
2020/12/02 00:39:17;;;;;;;19.40;11.63;;;4.10;98.70;;;;;;6254307;23;20086;-86
2020/12/02 00:41:47;;;;;;;20.65;12.07;;;4.00;98.70;;;;;;6251697;22;20044;-86
2020/12/02 00:44:15;;;;;;;19.17;11.15;;;4.10;98.80;;;;;;6254513;23;20020;-88
2020/12/02 00:46:47;;;;;;;20.08;11.57;;;4.10;98.70;;;;;;6224520;23;20439;-87
2020/12/02 00:49:16;;;;;;;19.88;11.70;;;4.10;98.70;;;;;;6254546;23;20030;-86
2020/12/02 00:51:43;;;;;;;17.80;10.80;;;4.10;98.60;;;;;;6250494;23;20016;-86
2020/12/02 00:54:11;;;;;;;17.65;10.40;;;4.00;98.60;;;;;;6254518;23;20046;-86
2020/12/02 00:56:43;;;;;;;17.17;10.57;;;4.10;98.60;;;;;;6235452;23;20020;-85
2020/12/02 00:59:18;;;;;;;17.75;10.15;;;4.10;98.60;;;;;;6257745;23;20378;-85
2020/12/02 01:01:57;;;;;;;16.67;9.57;;;4.10;98.60;;;;;;6255279;23;20016;-87
2020/12/02 01:04:24;;;;;;;17.40;9.93;;;4.10;98.70;;;;;;6254364;23;20020;-86
2020/12/02 01:06:54;;;;;;;18.27;11.20;;;4.10;98.60;;;;;;6251488;23;20020;-84
2020/12/02 06:05:24;;;;;;;16.83;9.95;;;3.80;98.50;;;;;;6243875;22;20274;-79
2020/12/02 06:07:54;;;;;;;17.17;9.43;;;3.80;98.70;;;;;;6244336;23;20047;-80
2020/12/02 06:10:31;;;;;;;16.63;9.35;;;3.90;98.70;;;;;;6244563;23;20001;-80
2020/12/02 06:13:07;;;;;;;16.00;9.05;;;3.80;98.60;;;;;;6244373;23;20032;-81
2020/12/02 06:15:38;;;;;;;17.52;9.18;;;3.90;98.70;;;;;;6244702;23;20032;-80
2020/12/02 06:23:16;;;;;;;15.68;8.48;;;3.80;98.30;;;;;;6195118;22;20032;-84
2020/12/02 06:25:51;;;;;;;15.35;8.48;;;3.90;98.40;;;;;;6223119;23;20071;-87
2020/12/02 06:33:56;;;;;;;16.05;8.95;;;3.90;98.10;;;;;;6236801;22;20020;-82
2020/12/02 06:36:27;;;;;;;15.60;9.05;;;3.90;98.20;;;;;;6250584;23;20020;-86
2020/12/02 06:39:06;;;;;;;16.85;8.65;;;3.90;97.90;;;;;;6222566;23;20505;-86
2020/12/02 06:41:38;;;;;;;14.02;8.43;;;4.00;98.00;;;;;;6249786;23;20047;-85
2020/12/02 06:45:01;;;;;;;14.80;8.18;;;3.90;98.00;;;;;;6249021;23;20061;-85
2020/12/02 06:47:30;;;;;;;13.70;8.07;;;3.90;98.00;;;;;;6244616;23;20027;-86
2020/12/02 06:50:05;;;;;;;14.32;7.82;;;3.90;97.80;;;;;;6223502;23;20052;-83
2020/12/02 06:52:35;;;;;;;16.50;8.27;;;3.90;97.90;;;;;;6253910;23;20346;-86
2020/12/02 06:55:17;;;;;;;15.68;9.00;;;4.00;97.90;;;;;;6250959;23;20016;-86
2020/12/02 06:57:45;;;;;;;14.05;8.70;;;3.90;98.00;;;;;;6222481;23;20031;-86
2020/12/02 07:00:21;;;;;;;14.82;8.38;;;3.90;98.00;;;;;;6202258;23;20047;-86
2020/12/02 07:02:55;;;;;;;15.88;8.07;;;3.90;97.80;;;;;;6251878;23;20048;-86
2020/12/02 07:05:33;;;;;;;15.30;8.68;;;3.90;97.80;;;;;;6266870;22;20004;-85
2020/12/02 07:08:24;;;;;;;18.50;9.90;;;3.90;98.00;;;;;;6236683;23;20058;-87
2020/12/02 07:11:15;;;;;;;18.58;9.10;;;3.90;98.20;;;;;;6265963;23;20326;-86
2020/12/02 07:16:37;;;;;;;15.80;8.65;;;3.90;98.20;;;;;;6249312;22;20050;-86
2020/12/02 07:19:07;;;;;;;16.40;8.15;;;3.90;98.00;;;;;;6207790;23;20028;-83
2020/12/02 07:21:40;;;;;;;15.50;8.50;;;4.00;97.80;;;;;;6255989;23;20454;-83
2020/12/02 07:24:08;;;;;;;14.82;8.13;;;3.90;97.80;;;;;;6259944;23;20020;-84
2020/12/02 07:26:35;;;;;;;16.67;8.70;;;3.90;97.70;;;;;;6232242;23;20347;-83
2020/12/02 07:29:11;;;;;;;16.33;8.23;;;4.00;97.70;;;;;;6250487;23;20066;-84
2020/12/02 07:31:37;;;;;;;16.38;9.10;;;3.80;97.60;;;;;;6250282;23;20020;-85
2020/12/02 07:34:12;;;;;;;17.95;9.30;;;3.80;97.40;;;;;;6251060;23;20052;-85
2020/12/02 07:36:39;;;;;;;18.00;9.07;;;3.70;97.30;;;;;;6229471;23;20020;-83
2020/12/02 07:39:14;;;;;;;17.00;9.93;;;3.70;97.40;;;;;;6259286;23;20346;-85
2020/12/02 07:41:58;;;;;;;21.42;10.07;;;3.80;97.50;;;;;;6213018;23;20024;-85
2020/12/02 07:44:26;;;;;;;17.85;9.80;;;3.70;97.50;;;;;;6233110;23;20477;-82
2020/12/02 07:46:58;;;;;;;18.52;9.43;;;3.80;97.50;;;;;;6255842;23;20020;-84
2020/12/02 07:49:25;;;;;;;19.02;9.68;;;3.90;97.50;;;;;;6254935;23;20023;-83
2020/12/02 07:52:00;;;;;;;20.25;9.88;;;3.90;97.50;;;;;;6242542;23;20042;-83
2020/12/02 07:54:29;;;;;;;18.38;9.10;;;3.70;97.20;;;;;;6264151;23;20032;-82
2020/12/02 07:56:57;;;;;;;20.85;10.45;;;3.70;97.10;;;;;;6269771;23;20031;-82
2020/12/02 07:59:27;;;;;;;18.80;9.73;;;3.80;97.30;;;;;;6243131;23;20027;-83
2020/12/02 08:02:09;;;;;;;19.25;9.50;;;3.80;97.00;;;;;;6271452;23;20031;-82
2020/12/02 08:10:34;;;;;;;18.83;9.35;;;3.70;97.10;;;;;;6235482;22;20008;-83
2020/12/02 08:31:34;;;;;;;16.45;8.48;;;3.60;97.60;;;;;;6236775;22;20016;-83
2020/12/02 08:50:30;;;;;;;13.75;6.90;;;3.90;96.90;;;;;;6245257;22;20237;-89
2020/12/02 09:03:54;;;;;;;14.48;7.60;;;4.00;96.20;;;;;;6226644;22;20086;-85
2020/12/02 09:20:17;;;;;;;11.68;6.70;;;4.00;95.70;;;;;;6254613;22;20028;-88
2020/12/02 09:23:04;;;;;;;11.80;6.53;;;4.10;95.50;;;;;;6253870;23;20035;-86
2020/12/02 09:28:59;;;;;;;13.57;6.97;;;4.00;97.00;;;;;;6249877;23;20397;-85
2020/12/02 09:31:28;;;;;;;14.32;7.28;;;4.10;97.20;;;;;;6248667;23;20016;-84
2020/12/02 09:33:54;;;;;;;13.77;7.35;;;4.10;95.50;;;;;;6249103;22;20023;-82
2020/12/02 09:36:23;;;;;;;12.52;6.82;;;4.00;95.40;;;;;;6221772;23;20020;-87
2020/12/02 09:39:22;;;;;;;12.20;6.53;;;4.10;95.10;;;;;;6252564;23;20020;-85
2020/12/02 09:48:41;;;;;;;13.57;7.00;;;4.00;95.30;;;;;;6240552;22;20728;-85
2020/12/02 09:51:21;;;;;;;13.43;7.40;;;4.00;95.40;;;;;;6224722;23;20338;-85
2020/12/02 09:53:53;;;;;;;12.63;6.90;;;4.10;95.70;;;;;;6226485;23;20020;-86
2020/12/02 09:56:20;;;;;;;14.55;7.68;;;4.10;95.60;;;;;;6253690;23;20512;-86
2020/12/02 09:58:54;;;;;;;14.85;7.65;;;4.00;95.90;;;;;;6251450;23;20036;-86
2020/12/02 10:01:35;;;;;;;15.88;8.35;;;4.00;95.20;;;;;;6223384;23;20020;-85
2020/12/02 10:04:49;;;;;;;16.13;8.13;;;4.00;95.70;;;;;;6196424;23;20020;-86
2020/12/02 10:07:30;;;;;;;16.17;8.20;;;4.10;95.70;;;;;;6248283;23;20043;-86
2020/12/02 10:10:45;;;;;;;17.27;8.88;;;4.20;95.50;;;;;;6247716;23;20024;-85
2020/12/02 10:13:40;;;;;;;16.60;8.07;;;4.20;95.40;;;;;;6248009;23;20016;-86
2020/12/02 10:16:25;;;;;;;16.67;8.63;;;4.20;95.20;;;;;;6221486;23;20020;-84
2020/12/02 10:19:18;;;;;;;16.58;8.25;;;4.20;95.20;;;;;;6247115;23;20024;-84
2020/12/02 10:22:01;;;;;;;22.38;10.75;;;4.30;95.60;;;;;;6249583;23;20091;-82
2020/12/02 10:24:49;;;;;;;16.75;8.77;;;4.20;95.50;;;;;;6249453;23;20044;-84
2020/12/02 10:28:01;;;;;;;19.77;9.50;;;4.10;95.30;;;;;;6222285;23;20046;-84
2020/12/02 10:30:30;;;;;;;18.70;8.93;;;4.20;95.20;;;;;;6171162;23;20040;-86
2020/12/02 10:33:25;;;;;;;18.27;9.02;;;4.20;95.30;;;;;;6219941;23;20023;-88
2020/12/02 10:35:53;;;;;;;18.70;9.85;;;4.30;95.20;;;;;;6249601;23;20056;-87
2020/12/02 10:38:33;;;;;;;17.23;9.45;;;4.30;95.20;;;;;;6266287;23;20446;-85
2020/12/02 10:41:15;;;;;;;21.13;10.40;;;4.20;95.20;;;;;;6249871;23;20489;-87
2020/12/02 10:43:56;;;;;;;17.88;9.25;;;4.20;95.40;;;;;;6251693;23;20024;-86
2020/12/02 10:46:40;;;;;;;19.48;10.02;;;4.10;95.50;;;;;;6250836;23;20466;-86
2020/12/02 10:49:20;;;;;;;19.83;10.43;;;4.20;95.20;;;;;;6247736;23;20016;-87
2020/12/02 10:51:51;;;;;;;21.30;10.90;;;4.20;94.90;;;;;;6223292;23;20055;-89
2020/12/02 10:54:19;;;;;;;19.65;9.70;;;4.20;95.30;;;;;;6245978;23;20024;-87
2020/12/02 10:56:47;;;;;;;22.42;10.95;;;4.20;95.30;;;;;;6219886;23;20035;-78
2020/12/02 10:59:15;;;;;;;21.88;11.30;;;4.30;95.10;;;;;;6247406;23;20043;-86
2020/12/02 11:01:44;;;;;;;18.77;10.00;;;4.30;94.70;;;;;;6247931;23;20036;-88
2020/12/02 11:04:16;;;;;;;23.55;11.38;;;4.30;94.90;;;;;;6247530;23;20082;-89
2020/12/02 11:06:59;;;;;;;22.60;11.02;;;4.30;95.00;;;;;;6245986;23;20051;-87
2020/12/02 11:09:47;;;;;;;22.45;11.20;;;4.40;95.40;;;;;;6245882;23;20411;-85
2020/12/02 11:12:43;;;;;;;22.27;11.48;;;4.30;94.70;;;;;;6246177;23;20028;-84
2020/12/02 11:15:28;;;;;;;24.77;12.13;;;4.30;94.90;;;;;;6246760;23;20079;-83
2020/12/02 11:18:45;;;;;;;23.40;11.27;;;4.20;94.70;;;;;;6247110;23;20039;-84
2020/12/02 11:21:25;;;;;;;25.48;12.25;;;4.10;94.90;;;;;;6187202;23;20024;-83
2020/12/02 11:24:10;;;;;;;24.35;11.45;;;4.10;94.90;;;;;;6247374;23;20039;-84
2020/12/02 11:26:40;;;;;;;23.63;11.50;;;4.00;94.60;;;;;;6248228;23;20024;-85
2020/12/02 11:29:13;;;;;;;24.40;11.70;;;4.10;94.90;;;;;;6247768;23;20048;-81
2020/12/02 11:32:08;;;;;;;22.23;10.60;;;4.10;94.40;;;;;;6248040;23;20078;-83
2020/12/02 11:34:54;;;;;;;23.38;12.32;;;4.20;94.40;;;;;;6248827;23;20028;-88
2020/12/02 11:37:28;;;;;;;24.92;12.07;;;4.00;94.70;;;;;;6248429;23;20024;-91
2020/12/02 11:40:10;;;;;;;25.67;11.98;;;4.10;94.70;;;;;;6248160;23;20031;-89
2020/12/02 11:42:46;;;;;;;25.83;12.43;;;4.30;94.60;;;;;;6248175;23;20047;-87
2020/12/02 11:45:20;;;;;;;25.05;12.73;;;4.20;94.70;;;;;;6248165;23;20059;-87
2020/12/02 11:48:01;;;;;;;26.73;12.65;;;4.00;94.80;;;;;;6248207;23;20039;-87
2020/12/02 11:50:33;;;;;;;26.77;13.10;;;4.00;94.90;;;;;;6249037;23;20070;-88
2020/12/02 12:04:44;;;;;;;26.13;13.15;;;4.00;94.80;;;;;;6232770;22;20034;-89
2020/12/02 13:02:23;;;;;;;19.25;8.55;;;3.90;92.70;;;;;;6247698;22;20012;-83
2020/12/02 13:04:50;;;;;;;17.08;8.40;;;3.80;93.10;;;;;;6270580;22;20031;-82
2020/12/02 13:07:22;;;;;;;16.75;8.98;;;4.00;92.80;;;;;;6247577;22;20078;-84
2020/12/02 13:10:20;;;;;;;16.60;8.70;;;4.10;93.10;;;;;;6273737;22;20038;-84
2020/12/02 13:46:31;;;;;;;16.20;8.18;;;3.80;91.60;;;;;;6239339;22;20004;-82
2020/12/02 14:17:29;;;;;;;19.17;8.93;;;3.70;90.80;;;;;;6221033;22;20016;-82
2020/12/02 14:59:09;;;;;;;21.17;9.63;;;3.70;91.60;;;;;;6236780;22;20233;-82
2020/12/02 15:01:36;;;;;;;19.63;9.20;;;3.80;91.10;;;;;;6270863;23;20070;-82
2020/12/02 15:04:04;;;;;;;19.60;9.60;;;3.60;91.40;;;;;;6262823;23;20020;-82
2020/12/02 15:07:00;;;;;;;17.98;8.82;;;3.70;90.90;;;;;;6261201;23;20092;-82
2020/12/02 15:09:38;;;;;;;19.92;9.10;;;3.80;90.60;;;;;;6264943;23;20020;-83
2020/12/02 15:12:09;;;;;;;21.52;9.95;;;3.60;90.20;;;;;;6262845;23;20467;-82
2020/12/02 15:14:38;;;;;;;18.58;9.05;;;3.70;90.70;;;;;;6233625;23;20077;-81
2020/12/02 15:17:20;;;;;;;21.02;9.68;;;3.60;91.30;;;;;;6263626;23;20024;-82
2020/12/02 15:19:47;;;;;;;21.88;9.68;;;3.60;91.80;;;;;;6264405;23;20028;-82
2020/12/02 15:22:17;;;;;;;19.58;9.55;;;3.70;91.50;;;;;;6266711;23;20020;-83
2020/12/02 15:24:43;;;;;;;22.42;10.13;;;3.60;91.00;;;;;;6271004;23;20024;-82
2020/12/02 15:27:18;;;;;;;20.60;9.95;;;3.80;91.30;;;;;;6268455;23;20020;-81
2020/12/02 15:29:48;;;;;;;19.38;8.95;;;3.60;91.50;;;;;;6231441;23;20080;-82
2020/12/02 15:32:22;;;;;;;20.75;10.00;;;3.60;91.30;;;;;;6235471;23;20146;-83
2020/12/02 15:34:53;;;;;;;19.77;9.85;;;3.70;91.20;;;;;;6229353;23;20017;-82
2020/12/02 15:37:31;;;;;;;20.75;9.70;;;3.60;91.00;;;;;;6228094;23;20020;-82
2020/12/02 15:40:05;;;;;;;21.55;9.60;;;3.60;91.20;;;;;;6231832;23;20020;-82
2020/12/02 15:42:57;;;;;;;21.45;10.65;;;3.60;91.20;;;;;;6235434;23;20027;-82
2020/12/02 15:45:39;;;;;;;19.95;9.15;;;3.50;91.00;;;;;;6231841;23;20020;-82
2020/12/02 15:48:12;;;;;;;21.33;9.45;;;3.50;91.30;;;;;;6240415;23;20052;-83
2020/12/02 15:50:50;;;;;;;19.20;9.57;;;3.60;91.40;;;;;;6217338;23;20015;-83
2020/12/02 15:53:31;;;;;;;24.02;10.38;;;3.60;91.40;;;;;;6243568;23;20004;-83
2020/12/02 15:56:06;;;;;;;19.27;9.93;;;3.50;91.30;;;;;;6240885;23;20028;-82
2020/12/02 15:58:58;;;;;;;22.73;10.23;;;3.50;90.90;;;;;;6237433;23;20021;-82
2020/12/02 16:01:30;;;;;;;22.30;10.00;;;3.50;91.30;;;;;;6240455;23;20027;-83
2020/12/02 16:04:18;;;;;;;22.55;10.98;;;3.30;91.30;;;;;;6216999;23;20005;-83
2020/12/02 16:06:50;;;;;;;20.90;9.98;;;3.40;91.60;;;;;;6243068;23;20060;-83
2020/12/02 16:09:18;;;;;;;23.42;11.13;;;3.60;91.90;;;;;;6216275;23;20021;-83
2020/12/02 16:11:46;;;;;;;20.20;9.93;;;3.30;91.90;;;;;;6215314;23;20028;-82
2020/12/02 16:14:17;;;;;;;24.63;10.88;;;3.20;92.10;;;;;;6239651;23;20017;-83
2020/12/02 16:16:45;;;;;;;25.77;11.77;;;3.30;92.10;;;;;;6237755;23;20351;-82
2020/12/02 16:19:16;;;;;;;24.05;11.45;;;3.30;91.90;;;;;;6214595;23;20047;-83
2020/12/02 16:21:59;;;;;;;20.40;10.75;;;3.40;92.10;;;;;;6214732;23;20059;-83
2020/12/02 16:24:29;;;;;;;26.05;11.20;;;3.40;91.90;;;;;;6216805;23;20046;-83
2020/12/02 16:27:01;;;;;;;23.08;10.75;;;3.30;91.80;;;;;;6238647;23;20074;-83
2020/12/02 16:29:29;;;;;;;23.50;10.07;;;3.40;91.70;;;;;;6238509;23;20071;-83
2020/12/02 16:32:00;;;;;;;22.85;10.40;;;3.40;91.80;;;;;;6215902;23;20060;-83
2020/12/02 16:34:27;;;;;;;21.42;10.57;;;3.50;91.80;;;;;;6218546;23;20020;-82
2020/12/02 16:36:54;;;;;;;23.40;10.57;;;3.40;91.70;;;;;;6244847;23;20011;-84
2020/12/02 16:39:26;;;;;;;22.58;10.77;;;3.50;91.40;;;;;;6217144;23;20001;-85
2020/12/02 19:42:03;;;;;;;32.87;15.03;;;3.00;91.40;;;;;;6241714;22;20256;-81
2020/12/02 22:07:02;;;;;;;32.92;15.95;;;2.70;92.50;;;;;;6234236;22;20021;-85
